Time;durP1;ratioP1;P1;durP2;ratioP2;P2;SDS_P1;SDS_P2;PMS_P1;PMS_P2;Temp;Humidity;BMP_temperature;BMP_pressure;BME280_temperature;BME280_humidity;BME280_pressure;Samples;Min_cycle;Max_cycle;Signal;HPM_P1;HPM_P2
2022/09/29 00:01:38;;;;;;;;;7.25;5.75;;;;;;;;5060365;28;45224;-72
2022/09/29 00:04:03;;;;;;;;;6.25;6.00;;;;;;;;5060638;28;45344;-72
2022/09/29 00:06:29;;;;;;;;;6.00;6.00;;;;;;;;5061044;28;45394;-72
2022/09/29 00:08:54;;;;;;;;;9.25;5.75;;;;;;;;5059870;28;45246;-72
2022/09/29 00:11:19;;;;;;;;;7.75;6.50;;;;;;;;5061053;28;45232;-72
2022/09/29 00:13:45;;;;;;;;;6.75;5.75;;;;;;;;5060761;28;45374;-72
2022/09/29 00:16:10;;;;;;;;;9.00;6.50;;;;;;;;5060847;28;45409;-72
2022/09/29 00:18:36;;;;;;;;;5.50;5.50;;;;;;;;5059202;28;45306;-72
2022/09/29 00:21:03;;;;;;;;;6.50;6.25;;;;;;;;5060535;28;45264;-72
2022/09/29 00:23:29;;;;;;;;;6.50;6.50;;;;;;;;5060597;28;45296;-72
2022/09/29 00:26:11;;;;;;;;;5.25;5.25;;;;;;;;5060507;28;45296;-72
2022/09/29 00:28:37;;;;;;;;;7.00;5.00;;;;;;;;5048465;28;45235;-70
2022/09/29 00:31:03;;;;;;;;;4.25;4.25;;;;;;;;5060237;27;45354;-72
2022/09/29 00:33:32;;;;;;;;;7.25;6.50;;;;;;;;5059985;28;45496;-72
2022/09/29 00:36:00;;;;;;;;;5.25;5.00;;;;;;;;5060187;28;45411;-72
2022/09/29 00:38:25;;;;;;;;;9.00;6.00;;;;;;;;5060623;28;45284;-70
2022/09/29 00:40:50;;;;;;;;;5.75;5.00;;;;;;;;5058634;28;46116;-71
2022/09/29 00:43:20;;;;;;;;;6.75;6.00;;;;;;;;5060452;28;45217;-72
2022/09/29 00:45:45;;;;;;;;;7.00;5.00;;;;;;;;5060377;28;45342;-72
2022/09/29 00:48:13;;;;;;;;;6.00;4.75;;;;;;;;5060531;28;45265;-72
2022/09/29 00:50:42;;;;;;;;;6.50;5.75;;;;;;;;5060004;28;45285;-70
2022/09/29 00:53:11;;;;;;;;;5.00;5.00;;;;;;;;5060129;28;45352;-72
2022/09/29 00:55:42;;;;;;;;;2.75;2.25;;;;;;;;5059952;28;45276;-72
2022/09/29 00:58:21;;;;;;;;;4.50;3.75;;;;;;;;5060364;28;45496;-70
2022/09/29 01:00:47;;;;;;;;;4.00;4.00;;;;;;;;5059941;28;45341;-72
2022/09/29 01:03:15;;;;;;;;;3.00;3.00;;;;;;;;5059911;28;45425;-72
2022/09/29 01:05:47;;;;;;;;;3.00;3.00;;;;;;;;5059196;28;45226;-70
2022/09/29 01:08:23;;;;;;;;;2.50;2.50;;;;;;;;5059964;28;45391;-70
2022/09/29 01:10:49;;;;;;;;;4.25;4.25;;;;;;;;5059746;28;45603;-70
2022/09/29 01:13:14;;;;;;;;;2.25;2.25;;;;;;;;5058880;28;45173;-70
2022/09/29 01:15:40;;;;;;;;;2.00;2.00;;;;;;;;5060107;28;45228;-70
2022/09/29 01:18:05;;;;;;;;;3.50;3.50;;;;;;;;5060077;28;45249;-70
2022/09/29 01:20:32;;;;;;;;;2.75;2.75;;;;;;;;5059785;28;45580;-72
2022/09/29 01:23:15;;;;;;;;;3.75;3.00;;;;;;;;5058293;28;47403;-72
2022/09/29 01:25:56;;;;;;;;;3.33;3.00;;;;;;;;5058258;28;45329;-72
2022/09/29 01:28:38;;;;;;;;;2.25;2.25;;;;;;;;5059629;28;45341;-72
2022/09/29 01:31:03;;;;;;;;;4.00;3.00;;;;;;;;5059539;28;45331;-72
2022/09/29 01:33:46;;;;;;;;;3.00;3.00;;;;;;;;5059693;28;45347;-72
2022/09/29 01:36:17;;;;;;;;;7.00;4.00;;;;;;;;5056269;28;45198;-70
2022/09/29 01:39:03;;;;;;;;;5.75;3.00;;;;;;;;5059798;28;45379;-72
2022/09/29 01:41:32;;;;;;;;;4.25;3.00;;;;;;;;5091996;27;45506;-72
2022/09/29 01:44:12;;;;;;;;;2.00;2.00;;;;;;;;5059393;28;45330;-72
2022/09/29 01:46:45;;;;;;;;;2.75;2.75;;;;;;;;5059617;28;45295;-72
2022/09/29 01:49:10;;;;;;;;;4.25;3.25;;;;;;;;5059649;28;45364;-71
2022/09/29 01:51:42;;;;;;;;;3.75;2.50;;;;;;;;5058422;28;47192;-72
2022/09/29 01:54:14;;;;;;;;;2.00;2.00;;;;;;;;5059230;28;46223;-72
2022/09/29 01:56:42;;;;;;;;;4.67;3.00;;;;;;;;5057683;28;45263;-72
2022/09/29 01:59:17;;;;;;;;;6.75;2.50;;;;;;;;5059293;28;45271;-72
2022/09/29 02:01:46;;;;;;;;;4.00;2.00;;;;;;;;5059099;28;45199;-72
2022/09/29 02:04:40;;;;;;;;;5.00;3.00;;;;;;;;5058972;28;45294;-72
2022/09/29 02:07:09;;;;;;;;;2.25;2.25;;;;;;;;5048466;28;45557;-72
2022/09/29 02:09:40;;;;;;;;;4.75;3.75;;;;;;;;5059142;28;45347;-72
2022/09/29 02:12:07;;;;;;;;;3.25;3.25;;;;;;;;5058720;28;45323;-72
2022/09/29 02:14:37;;;;;;;;;3.25;3.25;;;;;;;;5059012;28;46497;-72
2022/09/29 02:17:11;;;;;;;;;5.00;3.50;;;;;;;;5058703;28;45244;-72
2022/09/29 02:19:39;;;;;;;;;6.75;4.00;;;;;;;;5056867;28;45493;-72
2022/09/29 02:22:04;;;;;;;;;3.25;3.25;;;;;;;;5058870;28;45265;-71
2022/09/29 02:24:30;;;;;;;;;4.00;3.50;;;;;;;;5059142;28;45629;-71
2022/09/29 02:26:55;;;;;;;;;4.75;4.00;;;;;;;;5062401;28;45245;-72
2022/09/29 02:29:20;;;;;;;;;4.00;4.00;;;;;;;;5062387;28;45230;-72
2022/09/29 02:31:46;;;;;;;;;4.00;4.00;;;;;;;;5062409;28;45245;-72
2022/09/29 02:34:13;;;;;;;;;5.50;4.75;;;;;;;;5061988;28;45522;-72
2022/09/29 02:36:58;;;;;;;;;4.00;4.00;;;;;;;;5062141;28;45450;-72
2022/09/29 02:39:46;;;;;;;;;3.00;3.00;;;;;;;;5062020;28;45448;-72
2022/09/29 02:42:31;;;;;;;;;6.00;2.75;;;;;;;;5056162;27;45472;-72
2022/09/29 02:45:09;;;;;;;;;4.25;4.25;;;;;;;;5061688;27;45237;-72
2022/09/29 02:47:40;;;;;;;;;5.00;4.00;;;;;;;;5061885;28;45352;-72
2022/09/29 02:50:06;;;;;;;;;5.00;3.25;;;;;;;;5060544;28;45275;-72
2022/09/29 02:52:47;;;;;;;;;3.75;3.75;;;;;;;;5061756;28;45172;-72
2022/09/29 02:55:17;;;;;;;;;4.00;4.00;;;;;;;;5061920;28;45355;-72
2022/09/29 02:57:42;;;;;;;;;3.75;3.75;;;;;;;;5055439;28;45414;-72
2022/09/29 03:00:10;;;;;;;;;3.75;2.25;;;;;;;;5062968;28;45166;-72
2022/09/29 03:02:38;;;;;;;;;3.50;3.50;;;;;;;;5062508;28;45313;-72
2022/09/29 03:05:05;;;;;;;;;3.50;3.50;;;;;;;;5061597;28;45254;-72
2022/09/29 03:07:30;;;;;;;;;3.00;3.00;;;;;;;;5061674;28;45123;-72
2022/09/29 03:09:55;;;;;;;;;4.00;4.00;;;;;;;;5061651;28;45391;-72
2022/09/29 03:12:20;;;;;;;;;3.00;3.00;;;;;;;;5061705;28;45214;-72
2022/09/29 03:14:45;;;;;;;;;4.00;4.00;;;;;;;;5094293;27;45191;-72
2022/09/29 03:17:11;;;;;;;;;5.00;3.75;;;;;;;;5061810;28;45334;-72
2022/09/29 03:19:36;;;;;;;;;4.00;3.33;;;;;;;;5060148;28;45169;-72
2022/09/29 03:22:02;;;;;;;;;5.00;3.25;;;;;;;;5061538;28;45227;-72
2022/09/29 03:24:27;;;;;;;;;4.50;4.00;;;;;;;;5061548;28;45284;-72
2022/09/29 03:26:52;;;;;;;;;7.75;7.75;;;;;;;;5061112;28;45357;-72
2022/09/29 03:29:18;;;;;;;;;6.25;4.75;;;;;;;;5061626;28;45429;-72
2022/09/29 03:31:43;;;;;;;;;5.00;5.00;;;;;;;;5061689;28;45441;-72
2022/09/29 03:34:08;;;;;;;;;5.00;4.00;;;;;;;;5062252;28;46079;-72
2022/09/29 03:36:33;;;;;;;;;5.50;4.75;;;;;;;;5075709;28;45456;-72
2022/09/29 03:38:58;;;;;;;;;5.25;3.50;;;;;;;;5061611;28;45617;-72
2022/09/29 03:41:24;;;;;;;;;4.00;4.00;;;;;;;;5060902;28;45371;-72
2022/09/29 03:43:49;;;;;;;;;4.50;4.50;;;;;;;;5061392;28;45543;-70
2022/09/29 03:46:14;;;;;;;;;5.00;3.00;;;;;;;;5061039;28;45435;-72
2022/09/29 03:48:40;;;;;;;;;4.00;4.00;;;;;;;;5061264;28;45650;-72
2022/09/29 03:51:05;;;;;;;;;5.25;5.00;;;;;;;;5060563;28;45954;-72
2022/09/29 03:53:32;;;;;;;;;0.00;0.00;;;;;;;;5061084;28;45478;-72
2022/09/29 03:55:57;;;;;;;;;5.25;3.25;;;;;;;;5060697;28;45363;-72
2022/09/29 03:58:22;;;;;;;;;5.00;5.00;;;;;;;;5060804;28;45312;-72
2022/09/29 04:00:48;;;;;;;;;5.25;2.50;;;;;;;;5060586;28;45292;-72
2022/09/29 04:03:14;;;;;;;;;5.00;3.00;;;;;;;;5060846;28;45278;-72
2022/09/29 04:05:39;;;;;;;;;4.75;3.00;;;;;;;;5060244;28;45217;-71
2022/09/29 04:08:04;;;;;;;;;3.00;3.00;;;;;;;;5059531;28;45272;-71
2022/09/29 04:10:30;;;;;;;;;3.50;3.50;;;;;;;;5061299;28;45233;-72
2022/09/29 04:12:55;;;;;;;;;3.00;3.00;;;;;;;;5060376;28;46052;-72
2022/09/29 04:15:20;;;;;;;;;6.50;4.75;;;;;;;;5060547;28;45181;-72
2022/09/29 04:17:45;;;;;;;;;6.50;4.00;;;;;;;;5093361;27;45518;-72
2022/09/29 04:20:11;;;;;;;;;4.00;4.00;;;;;;;;5060179;28;45235;-72
2022/09/29 04:22:36;;;;;;;;;5.50;4.75;;;;;;;;5060418;28;47033;-71
2022/09/29 04:25:01;;;;;;;;;9.00;4.00;;;;;;;;5060508;28;44833;-72
2022/09/29 04:27:26;;;;;;;;;6.00;4.25;;;;;;;;5060379;28;45268;-72
2022/09/29 04:29:51;;;;;;;;;3.00;3.00;;;;;;;;5060438;28;45229;-72
2022/09/29 04:32:17;;;;;;;;;4.25;4.25;;;;;;;;5060313;28;45418;-71
2022/09/29 04:34:43;;;;;;;;;4.25;3.50;;;;;;;;5058568;28;45364;-72
2022/09/29 04:37:11;;;;;;;;;6.00;3.75;;;;;;;;5060410;28;45243;-71
2022/09/29 04:39:36;;;;;;;;;4.33;3.33;;;;;;;;5059847;28;45312;-71
2022/09/29 04:42:01;;;;;;;;;3.67;3.67;;;;;;;;5060098;28;45446;-71
2022/09/29 04:44:27;;;;;;;;;3.75;3.75;;;;;;;;5060631;28;45348;-72
2022/09/29 04:46:52;;;;;;;;;5.75;4.00;;;;;;;;5059309;28;45276;-71
2022/09/29 04:49:17;;;;;;;;;3.00;3.00;;;;;;;;5059110;28;45225;-71
2022/09/29 04:51:42;;;;;;;;;4.00;4.00;;;;;;;;5059280;28;46382;-71
2022/09/29 04:54:08;;;;;;;;;3.50;3.50;;;;;;;;5059899;28;45398;-72
2022/09/29 04:56:33;;;;;;;;;4.00;4.00;;;;;;;;5059887;28;45501;-71
2022/09/29 04:58:58;;;;;;;;;7.33;4.00;;;;;;;;5057805;28;45508;-71
2022/09/29 05:01:24;;;;;;;;;4.25;3.75;;;;;;;;5058697;28;45305;-71
2022/09/29 05:03:49;;;;;;;;;4.00;4.00;;;;;;;;5059015;28;45316;-72
2022/09/29 05:06:14;;;;;;;;;5.00;4.00;;;;;;;;5059608;28;45277;-72
2022/09/29 05:08:40;;;;;;;;;3.00;3.00;;;;;;;;5059258;28;45217;-72
2022/09/29 05:11:06;;;;;;;;;3.75;3.75;;;;;;;;5059635;28;45377;-72
2022/09/29 05:13:31;;;;;;;;;3.50;3.50;;;;;;;;5058287;28;45425;-71
2022/09/29 05:15:56;;;;;;;;;3.50;2.75;;;;;;;;5059840;28;45321;-71
2022/09/29 05:18:22;;;;;;;;;5.00;5.00;;;;;;;;5059478;28;44776;-71
2022/09/29 05:20:47;;;;;;;;;3.25;3.00;;;;;;;;5059421;28;46525;-71
2022/09/29 05:23:13;;;;;;;;;6.75;3.50;;;;;;;;5059275;28;44555;-71
2022/09/29 05:25:39;;;;;;;;;3.00;3.00;;;;;;;;5059926;28;45201;-71
2022/09/29 05:28:04;;;;;;;;;5.25;4.00;;;;;;;;5057654;28;46579;-71
2022/09/29 05:30:29;;;;;;;;;7.00;4.00;;;;;;;;5059392;28;46203;-72
2022/09/29 05:32:54;;;;;;;;;8.25;5.00;;;;;;;;5059778;28;45275;-71
2022/09/29 05:35:20;;;;;;;;;4.50;4.50;;;;;;;;5059834;28;45319;-73
2022/09/29 05:37:45;;;;;;;;;6.00;4.50;;;;;;;;5059659;28;45287;-73
2022/09/29 05:40:11;;;;;;;;;4.75;3.75;;;;;;;;5059575;28;46263;-73
2022/09/29 05:42:36;;;;;;;;;4.00;2.25;;;;;;;;5059280;28;45338;-73
2022/09/29 05:45:01;;;;;;;;;3.25;3.25;;;;;;;;5059787;28;45354;-73
2022/09/29 05:47:26;;;;;;;;;5.00;5.00;;;;;;;;5059363;28;45457;-74
2022/09/29 05:49:51;;;;;;;;;4.50;4.50;;;;;;;;5059368;28;45390;-72
2022/09/29 05:52:17;;;;;;;;;5.25;4.75;;;;;;;;5057891;28;45331;-72
2022/09/29 05:54:42;;;;;;;;;5.50;5.50;;;;;;;;5060324;28;45311;-72
2022/09/29 05:57:07;;;;;;;;;4.00;4.00;;;;;;;;5059071;28;45390;-73
2022/09/29 05:59:32;;;;;;;;;3.25;3.25;;;;;;;;5058545;28;46099;-74
2022/09/29 06:01:57;;;;;;;;;4.50;4.50;;;;;;;;5059425;28;45433;-74
2022/09/29 06:04:23;;;;;;;;;2.25;2.25;;;;;;;;5059837;28;45305;-77
2022/09/29 06:06:48;;;;;;;;;2.00;2.00;;;;;;;;5058644;28;45298;-74
2022/09/29 06:09:13;;;;;;;;;5.25;4.25;;;;;;;;5058454;28;45249;-74
2022/09/29 06:11:39;;;;;;;;;6.00;5.00;;;;;;;;5073710;28;45287;-74
2022/09/29 06:14:04;;;;;;;;;4.00;4.00;;;;;;;;5059324;28;45263;-72
2022/09/29 06:16:30;;;;;;;;;5.75;4.00;;;;;;;;5058993;28;45446;-72
2022/09/29 06:18:57;;;;;;;;;6.75;4.50;;;;;;;;5059145;28;45463;-71
2022/09/29 06:21:24;;;;;;;;;8.00;6.25;;;;;;;;5058725;28;45260;-73
2022/09/29 06:23:50;;;;;;;;;5.75;3.00;;;;;;;;5058896;28;45465;-72
2022/09/29 06:26:16;;;;;;;;;5.25;4.50;;;;;;;;5058070;28;45375;-72
2022/09/29 06:28:41;;;;;;;;;7.25;7.25;;;;;;;;5059077;28;46362;-72
2022/09/29 06:31:09;;;;;;;;;6.50;5.25;;;;;;;;5058897;28;45329;-72
2022/09/29 06:33:35;;;;;;;;;5.00;5.00;;;;;;;;5058482;28;45228;-72
2022/09/29 06:38:46;;;;;;;;;5.50;5.50;;;;;;;;5058059;28;45241;-72
2022/09/29 06:41:11;;;;;;;;;5.75;4.50;;;;;;;;5057735;28;45426;-72
2022/09/29 06:43:37;;;;;;;;;5.00;5.00;;;;;;;;5056859;28;45536;-72
2022/09/29 06:46:02;;;;;;;;;6.00;6.00;;;;;;;;5056977;28;47023;-72
2022/09/29 06:48:28;;;;;;;;;7.00;6.00;;;;;;;;5058632;28;45283;-72
2022/09/29 06:50:53;;;;;;;;;16.00;15.00;;;;;;;;5057994;28;45236;-73
2022/09/29 06:53:19;;;;;;;;;13.50;13.00;;;;;;;;5058577;28;45409;-73
2022/09/29 06:55:51;;;;;;;;;8.25;8.00;;;;;;;;5073859;28;47226;-73
2022/09/29 06:58:16;;;;;;;;;11.50;11.50;;;;;;;;5057270;28;45363;-73
2022/09/29 07:00:41;;;;;;;;;34.25;30.50;;;;;;;;5055858;28;45343;-73
2022/09/29 07:03:06;;;;;;;;;13.00;11.50;;;;;;;;5090054;27;45635;-73
2022/09/29 07:05:31;;;;;;;;;11.00;9.75;;;;;;;;5057371;28;45361;-73
2022/09/29 07:07:57;;;;;;;;;9.75;8.25;;;;;;;;5088181;27;46978;-73
2022/09/29 07:10:22;;;;;;;;;8.25;8.00;;;;;;;;5055856;28;45382;-73
2022/09/29 07:12:47;;;;;;;;;9.00;7.50;;;;;;;;5060430;28;45411;-69
2022/09/29 07:15:13;;;;;;;;;7.25;6.00;;;;;;;;5061967;28;45216;-73
2022/09/29 07:17:39;;;;;;;;;6.25;6.25;;;;;;;;5061899;28;45233;-73
2022/09/29 07:20:04;;;;;;;;;11.50;11.50;;;;;;;;5061372;28;45406;-73
2022/09/29 07:22:29;;;;;;;;;8.00;6.00;;;;;;;;5061902;28;45317;-73
2022/09/29 07:24:55;;;;;;;;;11.00;8.50;;;;;;;;5061596;28;45320;-73
2022/09/29 07:27:23;;;;;;;;;7.25;7.00;;;;;;;;5061427;28;46425;-73
2022/09/29 07:29:48;;;;;;;;;7.00;7.00;;;;;;;;5060132;28;45522;-73
2022/09/29 07:32:13;;;;;;;;;9.25;8.00;;;;;;;;5061932;28;45255;-73
2022/09/29 07:34:38;;;;;;;;;5.75;5.75;;;;;;;;5061083;28;45565;-73
2022/09/29 07:37:04;;;;;;;;;7.75;7.75;;;;;;;;5062457;28;45518;-73
2022/09/29 07:39:29;;;;;;;;;8.00;8.00;;;;;;;;5063224;28;45239;-73
2022/09/29 07:41:55;;;;;;;;;15.00;12.75;;;;;;;;5061683;28;45190;-71
2022/09/29 07:44:20;;;;;;;;;15.50;15.00;;;;;;;;5061037;28;45542;-72
2022/09/29 07:46:47;;;;;;;;;9.00;9.00;;;;;;;;5061158;28;45043;-72
2022/09/29 07:49:12;;;;;;;;;10.00;8.50;;;;;;;;5060625;28;45206;-73
2022/09/29 07:51:37;;;;;;;;;10.00;8.00;;;;;;;;5060799;28;45327;-73
2022/09/29 07:54:03;;;;;;;;;8.00;7.25;;;;;;;;5058934;28;45819;-70
2022/09/29 07:56:29;;;;;;;;;8.00;8.00;;;;;;;;5060865;28;46125;-70
2022/09/29 07:58:55;;;;;;;;;11.50;9.50;;;;;;;;5060661;28;45430;-69
2022/09/29 08:01:21;;;;;;;;;9.00;8.00;;;;;;;;5061295;28;45313;-70
2022/09/29 08:03:50;;;;;;;;;9.25;8.00;;;;;;;;5060742;28;45500;-70
2022/09/29 08:06:16;;;;;;;;;8.50;8.00;;;;;;;;5060131;28;45586;-69
2022/09/29 08:08:41;;;;;;;;;16.33;8.00;;;;;;;;5060737;28;45235;-70
2022/09/29 08:11:08;;;;;;;;;9.67;8.33;;;;;;;;5060927;28;45760;-71
2022/09/29 08:13:35;;;;;;;;;9.67;8.00;;;;;;;;5060953;28;45169;-70
2022/09/29 08:16:01;;;;;;;;;9.50;9.25;;;;;;;;5060482;28;45359;-71
2022/09/29 08:18:27;;;;;;;;;13.75;12.75;;;;;;;;5059152;28;45305;-72
2022/09/29 08:20:52;;;;;;;;;13.75;12.25;;;;;;;;5060386;28;45370;-71
2022/09/29 08:23:18;;;;;;;;;11.50;10.75;;;;;;;;5091573;27;45465;-71
2022/09/29 08:25:43;;;;;;;;;10.33;9.00;;;;;;;;5060136;28;45176;-71
2022/09/29 08:28:10;;;;;;;;;12.00;9.75;;;;;;;;5060483;28;45656;-72
2022/09/29 08:30:35;;;;;;;;;13.33;10.67;;;;;;;;5060902;28;45506;-72
2022/09/29 08:33:00;;;;;;;;;11.00;8.33;;;;;;;;5060357;28;45196;-72
2022/09/29 08:35:26;;;;;;;;;12.33;12.33;;;;;;;;5059839;28;45182;-72
2022/09/29 08:37:52;;;;;;;;;16.00;10.67;;;;;;;;5060445;28;45202;-72
2022/09/29 08:40:17;;;;;;;;;10.67;9.33;;;;;;;;5060363;28;45287;-72
2022/09/29 08:43:08;;;;;;;;;7.00;7.00;;;;;;;;5060089;28;45494;-73
2022/09/29 08:45:38;;;;;;;;;8.67;8.00;;;;;;;;5043991;28;45546;-72
2022/09/29 08:48:12;;;;;;;;;11.33;7.67;;;;;;;;5061462;28;45279;-72
2022/09/29 08:50:42;;;;;;;;;10.33;10.33;;;;;;;;5060896;28;46504;-72
2022/09/29 08:53:11;;;;;;;;;8.33;8.33;;;;;;;;5060259;28;45536;-72
2022/09/29 08:55:42;;;;;;;;;8.33;8.33;;;;;;;;5059223;28;45366;-73
2022/09/29 08:58:10;;;;;;;;;6.67;6.67;;;;;;;;5059872;28;45304;-73
2022/09/29 09:00:42;;;;;;;;;10.00;9.00;;;;;;;;5060074;28;45347;-72
2022/09/29 09:03:21;;;;;;;;;9.33;9.00;;;;;;;;5059550;28;45465;-73
2022/09/29 09:05:55;;;;;;;;;10.00;8.00;;;;;;;;5059824;28;45252;-72
2022/09/29 09:08:33;;;;;;;;;7.67;7.67;;;;;;;;5059847;28;45225;-72
2022/09/29 09:10:58;;;;;;;;;9.00;9.00;;;;;;;;5060023;28;45230;-73
2022/09/29 09:14:06;;;;;;;;;11.67;10.33;;;;;;;;5059867;28;45269;-73
2022/09/29 09:16:37;;;;;;;;;7.33;7.33;;;;;;;;5017603;28;46915;-73
2022/09/29 09:19:21;;;;;;;;;7.00;7.00;;;;;;;;5017837;28;45225;-72
2022/09/29 09:21:51;;;;;;;;;6.33;6.33;;;;;;;;5045156;28;45535;-72
2022/09/29 09:24:24;;;;;;;;;9.00;7.00;;;;;;;;5059746;28;45302;-72
2022/09/29 09:26:50;;;;;;;;;10.67;9.67;;;;;;;;5059339;28;46434;-72
2022/09/29 09:29:18;;;;;;;;;7.67;7.33;;;;;;;;5059815;28;45323;-72
2022/09/29 09:31:48;;;;;;;;;10.67;9.00;;;;;;;;5059888;28;45316;-72
2022/09/29 09:34:19;;;;;;;;;10.33;8.67;;;;;;;;5058339;28;45247;-73
2022/09/29 09:36:49;;;;;;;;;12.00;12.00;;;;;;;;5059493;28;45291;-72
2022/09/29 09:39:24;;;;;;;;;10.67;10.00;;;;;;;;5059334;28;44801;-73
2022/09/29 09:41:51;;;;;;;;;11.67;11.67;;;;;;;;5059421;28;45229;-73
2022/09/29 09:44:19;;;;;;;;;12.33;9.00;;;;;;;;5059183;28;46032;-72
2022/09/29 09:46:48;;;;;;;;;10.00;10.00;;;;;;;;5059403;28;45221;-72
2022/09/29 09:49:20;;;;;;;;;12.00;10.00;;;;;;;;5058422;28;45227;-72
2022/09/29 09:51:51;;;;;;;;;5.33;5.33;;;;;;;;5059577;28;45319;-73
2022/09/29 09:54:19;;;;;;;;;13.67;11.33;;;;;;;;5059158;28;45256;-72
2022/09/29 09:56:51;;;;;;;;;11.00;11.00;;;;;;;;5058522;28;45641;-71
2022/09/29 09:59:16;;;;;;;;;10.67;9.00;;;;;;;;5058296;28;45339;-70
2022/09/29 10:01:41;;;;;;;;;11.33;11.00;;;;;;;;5058846;28;45316;-71
2022/09/29 10:04:10;;;;;;;;;23.33;21.00;;;;;;;;5057869;28;45263;-71
2022/09/29 10:06:35;;;;;;;;;7.33;6.00;;;;;;;;5058092;28;46832;-72
2022/09/29 10:09:00;;;;;;;;;9.33;7.00;;;;;;;;5059701;28;45518;-72
2022/09/29 10:11:27;;;;;;;;;42.00;36.75;;;;;;;;5058501;28;45501;-71
2022/09/29 10:13:57;;;;;;;;;32.00;31.00;;;;;;;;5058524;28;45586;-72
2022/09/29 10:16:40;;;;;;;;;5.67;5.67;;;;;;;;5057991;28;45403;-72
2022/09/29 10:19:05;;;;;;;;;8.33;8.33;;;;;;;;5056777;28;45486;-72
2022/09/29 10:21:30;;;;;;;;;8.33;8.33;;;;;;;;5058436;28;45460;-72
2022/09/29 10:23:56;;;;;;;;;7.00;7.00;;;;;;;;5058666;28;45429;-72
2022/09/29 10:26:26;;;;;;;;;9.00;9.00;;;;;;;;5058307;28;45556;-72
2022/09/29 10:29:00;;;;;;;;;8.00;8.00;;;;;;;;5058350;28;45410;-72
2022/09/29 10:31:27;;;;;;;;;9.67;8.33;;;;;;;;5058392;28;45239;-73
2022/09/29 10:33:57;;;;;;;;;8.67;8.67;;;;;;;;5058148;28;45422;-72
2022/09/29 10:36:23;;;;;;;;;9.67;9.67;;;;;;;;5057912;28;45252;-72
2022/09/29 10:38:49;;;;;;;;;9.00;8.00;;;;;;;;5058415;28;45318;-71
2022/09/29 10:41:15;;;;;;;;;12.33;9.00;;;;;;;;5057979;28;45452;-72
2022/09/29 10:43:41;;;;;;;;;7.00;7.00;;;;;;;;5056268;28;45304;-72
2022/09/29 10:46:25;;;;;;;;;8.33;8.33;;;;;;;;5059327;28;45243;-72
2022/09/29 10:49:09;;;;;;;;;23.00;22.00;;;;;;;;5062167;28;45193;-72
2022/09/29 10:51:35;;;;;;;;;13.33;12.00;;;;;;;;5062237;28;45503;-72
2022/09/29 10:54:07;;;;;;;;;5.00;5.00;;;;;;;;5061931;28;45588;-72
2022/09/29 10:56:33;;;;;;;;;3.67;3.67;;;;;;;;5061907;28;46166;-73
2022/09/29 10:58:59;;;;;;;;;6.00;4.33;;;;;;;;5062157;28;45338;-73
2022/09/29 11:01:25;;;;;;;;;5.00;4.00;;;;;;;;5061654;28;45312;-73
2022/09/29 11:04:14;;;;;;;;;8.00;7.00;;;;;;;;5061818;28;44839;-72
2022/09/29 11:06:39;;;;;;;;;17.67;16.67;;;;;;;;5077199;28;47286;-72
2022/09/29 11:09:06;;;;;;;;;16.00;16.00;;;;;;;;5060453;28;45402;-72
2022/09/29 11:11:39;;;;;;;;;17.67;15.00;;;;;;;;5061871;28;45475;-72
2022/09/29 11:14:04;;;;;;;;;18.67;16.33;;;;;;;;5061893;28;45269;-72
2022/09/29 11:16:33;;;;;;;;;18.67;16.33;;;;;;;;5077183;28;46565;-72
2022/09/29 11:19:10;;;;;;;;;14.33;14.00;;;;;;;;5061730;28;45314;-73
2022/09/29 11:21:37;;;;;;;;;19.00;14.00;;;;;;;;5061753;28;45189;-72
2022/09/29 11:24:09;;;;;;;;;17.33;16.00;;;;;;;;5061528;28;45206;-75
2022/09/29 11:26:39;;;;;;;;;13.33;11.67;;;;;;;;5061116;28;45347;-76
2022/09/29 11:29:13;;;;;;;;;13.67;13.00;;;;;;;;5060220;28;45009;-76
2022/09/29 11:31:48;;;;;;;;;12.33;11.33;;;;;;;;5061572;28;44729;-75
2022/09/29 11:34:19;;;;;;;;;12.33;11.67;;;;;;;;5059752;28;45207;-76
2022/09/29 11:37:05;;;;;;;;;10.00;9.33;;;;;;;;5061421;28;45294;-77
2022/09/29 11:39:49;;;;;;;;;13.67;11.67;;;;;;;;5058931;28;45315;-75
2022/09/29 11:42:23;;;;;;;;;15.67;13.00;;;;;;;;5062525;28;45370;-77
2022/09/29 11:44:48;;;;;;;;;15.00;13.00;;;;;;;;5076882;28;45715;-75
2022/09/29 11:47:23;;;;;;;;;17.00;17.00;;;;;;;;5060675;28;45312;-76
2022/09/29 11:49:54;;;;;;;;;17.00;15.67;;;;;;;;5076182;28;45348;-76
2022/09/29 11:52:31;;;;;;;;;21.67;18.00;;;;;;;;5060592;28;45440;-75
2022/09/29 11:55:02;;;;;;;;;17.33;13.67;;;;;;;;5060570;28;45346;-76
2022/09/29 11:57:57;;;;;;;;;17.67;14.00;;;;;;;;5075183;28;46567;-76
2022/09/29 12:00:37;;;;;;;;;16.00;14.00;;;;;;;;5051706;27;45498;-76
2022/09/29 12:03:08;;;;;;;;;13.33;12.00;;;;;;;;5060602;28;45378;-75
2022/09/29 12:05:41;;;;;;;;;12.33;12.33;;;;;;;;5059054;28;47097;-75
2022/09/29 12:08:07;;;;;;;;;19.00;12.33;;;;;;;;5060269;28;45344;-75
2022/09/29 12:10:45;;;;;;;;;16.67;13.33;;;;;;;;5059625;28;45436;-75
2022/09/29 12:13:10;;;;;;;;;10.67;10.67;;;;;;;;5060202;28;45401;-75
2022/09/29 12:15:54;;;;;;;;;9.00;9.00;;;;;;;;5060839;28;45268;-74
2022/09/29 12:18:30;;;;;;;;;15.00;12.00;;;;;;;;5060544;28;46168;-74
2022/09/29 12:20:56;;;;;;;;;10.00;10.00;;;;;;;;5060199;28;45506;-74
2022/09/29 12:23:23;;;;;;;;;11.00;9.67;;;;;;;;5058939;28;45344;-73
2022/09/29 12:26:08;;;;;;;;;13.00;11.75;;;;;;;;5060369;28;45449;-73
2022/09/29 12:28:41;;;;;;;;;8.33;8.00;;;;;;;;5047662;28;46391;-74
2022/09/29 12:31:10;;;;;;;;;7.33;7.00;;;;;;;;5059606;28;45391;-72
2022/09/29 12:33:57;;;;;;;;;10.00;8.00;;;;;;;;5059636;28;45283;-72
2022/09/29 12:36:44;;;;;;;;;12.67;9.33;;;;;;;;5058980;28;45410;-72
2022/09/29 12:39:28;;;;;;;;;5.00;5.00;;;;;;;;5088998;27;47274;-72
2022/09/29 12:42:12;;;;;;;;;6.00;6.00;;;;;;;;5057128;28;45376;-73
2022/09/29 12:44:43;;;;;;;;;6.00;6.00;;;;;;;;5058090;28;45371;-72
2022/09/29 12:47:18;;;;;;;;;5.33;5.33;;;;;;;;5058426;28;45307;-73
2022/09/29 12:50:02;;;;;;;;;8.67;6.67;;;;;;;;5060039;28;45668;-72
2022/09/29 12:52:37;;;;;;;;;20.00;17.00;;;;;;;;5060111;28;45444;-72
2022/09/29 12:55:05;;;;;;;;;14.33;13.00;;;;;;;;5060552;28;45285;-72
2022/09/29 12:57:39;;;;;;;;;45.25;36.75;;;;;;;;5059655;28;45461;-72
2022/09/29 13:00:04;;;;;;;;;9.67;9.00;;;;;;;;5058927;28;45496;-72
2022/09/29 13:02:41;;;;;;;;;9.00;9.00;;;;;;;;5059381;28;45528;-71
2022/09/29 13:05:25;;;;;;;;;7.33;7.00;;;;;;;;5059967;28;45229;-72
2022/09/29 13:07:50;;;;;;;;;9.67;8.33;;;;;;;;5059895;28;46094;-72
2022/09/29 13:10:28;;;;;;;;;9.00;9.00;;;;;;;;5059809;28;45396;-72
2022/09/29 13:13:12;;;;;;;;;10.67;9.67;;;;;;;;5060009;28;45224;-72
2022/09/29 13:15:52;;;;;;;;;11.33;8.67;;;;;;;;5060110;28;45461;-71
2022/09/29 13:18:24;;;;;;;;;10.00;7.67;;;;;;;;5059709;28;45646;-72
2022/09/29 13:21:00;;;;;;;;;12.33;11.00;;;;;;;;5074591;28;45549;-72
2022/09/29 13:23:25;;;;;;;;;12.00;9.00;;;;;;;;5075219;28;45360;-72
2022/09/29 13:25:59;;;;;;;;;9.33;8.67;;;;;;;;5075608;28;45264;-72
2022/09/29 13:28:25;;;;;;;;;12.00;12.00;;;;;;;;5059706;28;45179;-71
2022/09/29 13:30:51;;;;;;;;;12.33;11.67;;;;;;;;5059670;28;45154;-72
2022/09/29 13:33:22;;;;;;;;;9.67;6.67;;;;;;;;5059614;28;45305;-72
2022/09/29 13:35:48;;;;;;;;;9.67;7.33;;;;;;;;5059521;28;45537;-72
2022/09/29 13:38:16;;;;;;;;;8.00;8.00;;;;;;;;5059734;28;45236;-72
2022/09/29 13:41:01;;;;;;;;;10.67;10.67;;;;;;;;5059131;28;46149;-72
2022/09/29 13:43:38;;;;;;;;;12.00;10.00;;;;;;;;5059622;27;45261;-71
2022/09/29 13:46:22;;;;;;;;;12.67;10.00;;;;;;;;5059578;28;45340;-72
2022/09/29 13:48:50;;;;;;;;;11.33;11.33;;;;;;;;5058912;28;45312;-72
2022/09/29 13:51:24;;;;;;;;;13.00;13.00;;;;;;;;5059531;28;45231;-71
2022/09/29 13:54:08;;;;;;;;;11.00;10.00;;;;;;;;5059286;28;45481;-71
2022/09/29 13:56:34;;;;;;;;;9.00;9.00;;;;;;;;5059392;28;45462;-72
2022/09/29 13:59:00;;;;;;;;;11.33;9.33;;;;;;;;5074094;28;45326;-71
2022/09/29 14:01:34;;;;;;;;;10.00;10.00;;;;;;;;5091914;27;46340;-71
2022/09/29 14:04:19;;;;;;;;;8.00;8.00;;;;;;;;5059043;28;45434;-71
2022/09/29 14:06:46;;;;;;;;;9.67;7.67;;;;;;;;5059127;27;45352;-71
2022/09/29 14:09:14;;;;;;;;;13.67;9.67;;;;;;;;5058991;28;45375;-71
2022/09/29 14:11:46;;;;;;;;;13.67;11.67;;;;;;;;5058786;28;46671;-71
2022/09/29 14:14:21;;;;;;;;;9.00;9.00;;;;;;;;5059308;28;45209;-71
2022/09/29 14:16:46;;;;;;;;;11.33;9.67;;;;;;;;5059195;28;45228;-72
2022/09/29 14:19:25;;;;;;;;;17.33;16.00;;;;;;;;5058912;28;45225;-72
2022/09/29 14:21:52;;;;;;;;;13.67;10.67;;;;;;;;5061123;28;45273;-71
2022/09/29 14:24:33;;;;;;;;;11.00;10.00;;;;;;;;5061417;28;45883;-71
2022/09/29 14:27:16;;;;;;;;;9.33;9.33;;;;;;;;5062609;28;45470;-71
2022/09/29 14:29:44;;;;;;;;;16.67;14.00;;;;;;;;5062368;28;45313;-71
2022/09/29 14:32:13;;;;;;;;;8.00;8.00;;;;;;;;5062263;28;45255;-71
2022/09/29 14:34:39;;;;;;;;;7.00;7.00;;;;;;;;5062093;28;45375;-72
2022/09/29 14:37:06;;;;;;;;;6.67;6.67;;;;;;;;5060822;28;45375;-72
2022/09/29 14:39:31;;;;;;;;;7.67;7.67;;;;;;;;5062458;28;45182;-72
2022/09/29 14:41:56;;;;;;;;;5.67;5.33;;;;;;;;5062154;28;45271;-72
2022/09/29 14:44:24;;;;;;;;;7.00;6.00;;;;;;;;5061903;28;45220;-72
2022/09/29 14:53:01;;;;;;;;;10.33;8.33;;;;;;;;5062029;28;45405;-73
2022/09/29 14:55:39;;;;;;;;;6.00;6.00;;;;;;;;5061263;28;44741;-72
2022/09/29 14:58:16;;;;;;;;;5.33;5.33;;;;;;;;5060465;28;45455;-72